DUR weather

King Shaka International Airport
Durban, Kwazulu-Natal, South Africa

Public forecast

Using degrees Celsius for public forecast. Weather courtesy of forecast.io.

METAR (pilot weather report)

Retrieved 2019/04/26 01:00 UTC (46 minutes ago):

FALE 260100Z 19001KT 9999 FEW025 17/16 Q1014 NOSIG

TAF (pilot weather forecast)

Forecast is more than 12 hours old.

Retrieved 2019/04/25 00:00 UTC (1 day ago):

TAF FALE 252200Z 2600/2706 20008KT 9999 SCT015 TX26/2612Z TN17/2604Z FM260700 19012KT CAVOK